createdAt,value
2019-02-14T00:01:56.861Z,97876.95
2019-02-14T00:04:38.914Z,97858.39
2019-02-14T00:07:28.641Z,97879.97
2019-02-14T00:10:10.559Z,97870.33
2019-02-14T00:13:00.321Z,97846.80
2019-02-14T00:15:50.005Z,97865.77
2019-02-14T00:18:32.246Z,97873.16
2019-02-14T00:21:14.359Z,97875.60
2019-02-14T00:24:04.148Z,97835.73
2019-02-14T00:29:57.475Z,97874.37
2019-02-14T00:32:39.695Z,97875.94
2019-02-14T00:35:29.775Z,97886.46
2019-02-14T00:38:19.547Z,97858.48
2019-02-14T00:41:09.292Z,97872.66
2019-02-14T00:44:18.166Z,97873.36
2019-02-14T00:47:00.356Z,97875.18
2019-02-14T00:49:50.104Z,97851.64
2019-02-14T00:52:39.816Z,97873.23
2019-02-14T00:55:22.498Z,97865.47
2019-02-14T01:01:21.278Z,97867.50
2019-02-14T01:04:04.016Z,97869.15
2019-02-14T01:06:53.812Z,97870.53
2019-02-14T01:09:56.286Z,97875.55
2019-02-14T01:12:39.860Z,97875.57
2019-02-14T01:18:26.586Z,97871.11
2019-02-14T01:21:16.270Z,97875.28
2019-02-14T01:23:58.182Z,97869.60
2019-02-14T01:26:47.884Z,97870.38
2019-02-14T01:29:29.819Z,97847.44
2019-02-14T01:32:19.690Z,97864.86
2019-02-14T01:35:01.648Z,97864.03
2019-02-14T01:37:51.384Z,97864.85
2019-02-14T01:40:33.778Z,97850.30
2019-02-14T01:46:24.964Z,97867.34
2019-02-14T01:49:14.662Z,97862.20
2019-02-14T01:51:56.840Z,97840.14
2019-02-14T01:54:46.569Z,97838.67
2019-02-14T01:57:28.966Z,97851.78
2019-02-14T02:03:22.066Z,97845.95
2019-02-14T02:05:52.786Z,97847.05
2019-02-14T02:08:42.508Z,97847.63
2019-02-14T02:11:25.342Z,97842.59
2019-02-14T02:14:15.118Z,97836.42
2019-02-14T02:17:04.889Z,97836.77
2019-02-14T02:19:54.676Z,97835.93
2019-02-14T02:23:03.593Z,97834.63
2019-02-14T02:25:53.305Z,97842.77
2019-02-14T02:28:43.038Z,97853.69
2019-02-14T02:31:32.774Z,97830.48
2019-02-14T02:34:15.732Z,97860.20
2019-02-14T02:40:08.937Z,97855.17
2019-02-14T02:42:51.017Z,97857.84
2019-02-14T02:45:40.921Z,97850.08
2019-02-14T02:48:30.762Z,97858.34
2019-02-14T02:51:20.529Z,97851.37
2019-02-14T02:57:13.408Z,97864.24
2019-02-14T02:59:55.591Z,97850.33
2019-02-14T03:02:45.333Z,97868.84
2019-02-14T03:05:27.364Z,97869.92
2019-02-14T03:08:10.085Z,97879.05
2019-02-14T03:10:59.829Z,97877.67
2019-02-14T03:13:49.617Z,97867.80
2019-02-14T03:16:39.418Z,97880.49
2019-02-14T03:19:29.271Z,97881.02
2019-02-14T03:22:18.995Z,97883.50
2019-02-14T03:25:01.579Z,97878.86
2019-02-14T03:27:51.402Z,97870.83
2019-02-14T03:30:41.198Z,97876.99
2019-02-14T03:33:31.054Z,97845.94
2019-02-14T03:36:21.023Z,97870.48
2019-02-14T03:39:10.899Z,97861.14
2019-02-14T03:42:00.701Z,97861.86
2019-02-14T03:44:50.477Z,97862.92
2019-02-14T03:47:40.241Z,97844.24
2019-02-14T03:50:29.959Z,97874.88
2019-02-14T03:53:12.133Z,97872.28
2019-02-14T03:56:01.877Z,97858.45
2019-02-14T03:58:44.089Z,97848.29
2019-02-14T04:01:33.838Z,97859.50
2019-02-14T04:04:23.558Z,97869.33
2019-02-14T04:07:13.488Z,97871.48
2019-02-14T04:09:55.862Z,97876.87
2019-02-14T04:13:04.655Z,97860.45
2019-02-14T04:15:46.677Z,97885.05
2019-02-14T04:18:36.532Z,97890.45
2019-02-14T04:21:18.765Z,97885.89
2019-02-14T04:24:08.481Z,97886.38
2019-02-14T04:26:52.588Z,97895.42
2019-02-14T04:29:42.309Z,97896.55
2019-02-14T04:32:24.601Z,97891.91
2019-02-14T04:35:14.642Z,97892.69
2019-02-14T04:37:57.531Z,97897.06
2019-02-14T04:40:47.265Z,97898.90
2019-02-14T04:43:29.820Z,97864.99
2019-02-14T04:46:19.531Z,97894.66
2019-02-14T04:49:01.697Z,97887.33
2019-02-14T04:51:51.408Z,97889.31
2019-02-14T04:54:33.407Z,97882.91
2019-02-14T04:57:15.404Z,97885.31
2019-02-14T05:00:06.222Z,97887.20
2019-02-14T05:02:55.990Z,97891.77
2019-02-14T05:05:45.763Z,97890.69
2019-02-14T05:08:35.570Z,97890.44
2019-02-14T05:11:25.416Z,97895.03
2019-02-14T05:14:15.301Z,97900.38
2019-02-14T05:17:05.073Z,97894.78
2019-02-14T05:19:54.808Z,97896.67
2019-02-14T05:23:03.665Z,97882.75
2019-02-14T05:25:53.546Z,97891.78
2019-02-14T05:28:43.314Z,97893.94
2019-02-14T05:31:33.106Z,97876.58
2019-02-14T05:34:22.942Z,97897.14
2019-02-14T05:37:31.737Z,97893.39
2019-02-14T05:40:14.060Z,97892.34
2019-02-14T05:43:03.812Z,97885.88
2019-02-14T05:45:45.758Z,97885.09
2019-02-14T05:48:35.503Z,97871.22
2019-02-14T05:51:17.488Z,97886.64
2019-02-14T05:54:07.479Z,97885.05
2019-02-14T05:56:50.076Z,97873.23
2019-02-14T05:59:39.795Z,97877.31
2019-02-14T06:02:29.706Z,97877.27
2019-02-14T06:05:11.959Z,97875.68
2019-02-14T06:08:01.706Z,97873.74
2019-02-14T06:10:51.500Z,97869.25
2019-02-14T06:13:41.280Z,97879.17
2019-02-14T06:16:23.884Z,97887.20
2019-02-14T06:19:13.669Z,97864.23
2019-02-14T06:22:03.524Z,97891.21
2019-02-14T06:24:53.354Z,97894.77
2019-02-14T06:27:43.123Z,97892.09
2019-02-14T06:33:29.652Z,97892.67
2019-02-14T06:39:20.980Z,97892.36
2019-02-14T06:42:10.696Z,97883.20
2019-02-14T06:44:53.066Z,97890.45
2019-02-14T06:47:42.816Z,97896.33
2019-02-14T06:50:25.439Z,97897.14
2019-02-14T06:53:15.176Z,97905.14
2019-02-14T06:56:04.945Z,97900.05
2019-02-14T06:58:47.788Z,97907.57
2019-02-14T07:04:33.608Z,97889.30
2019-02-14T07:07:23.384Z,97898.06
2019-02-14T07:10:06.486Z,97910.17
2019-02-14T07:12:56.215Z,97912.30
2019-02-14T07:15:38.779Z,97908.50
2019-02-14T07:18:28.547Z,97911.17
2019-02-14T07:21:10.611Z,97887.20
2019-02-14T07:24:00.373Z,97903.52
2019-02-14T07:26:42.770Z,97920.42
2019-02-14T07:29:32.697Z,97926.32
2019-02-14T07:32:15.253Z,97924.92
2019-02-14T07:35:05.151Z,97932.23
2019-02-14T07:37:48.089Z,97904.11
2019-02-14T07:40:37.854Z,97923.86
2019-02-14T07:43:20.084Z,97925.83
2019-02-14T07:46:09.850Z,97920.41
2019-02-14T07:48:52.224Z,97929.74
2019-02-14T07:51:41.991Z,97939.34
2019-02-14T07:54:24.121Z,97934.02
2019-02-14T07:57:13.825Z,97934.89
2019-02-14T07:59:56.365Z,97944.30
2019-02-14T08:02:46.083Z,97942.95
2019-02-14T08:05:35.837Z,97940.50
2019-02-14T08:08:18.037Z,97931.89
2019-02-14T08:11:20.733Z,97918.05
2019-02-14T08:14:02.884Z,97945.56
2019-02-14T08:16:52.616Z,97929.03
2019-02-14T08:19:35.159Z,97948.02
2019-02-14T08:22:24.925Z,97945.63
2019-02-14T08:25:08.189Z,97953.95
2019-02-14T08:27:57.927Z,97969.23
2019-02-14T08:30:41.791Z,97965.73
2019-02-14T08:33:31.517Z,97960.09
2019-02-14T08:36:13.587Z,97960.36
2019-02-14T08:39:03.565Z,97956.86
2019-02-14T08:41:45.743Z,97963.54
2019-02-14T08:44:35.487Z,97961.36
2019-02-14T08:47:17.589Z,97933.53
2019-02-14T08:50:07.739Z,97964.52
2019-02-14T08:52:49.977Z,97964.17
2019-02-14T08:55:39.733Z,97954.22
2019-02-14T08:58:22.335Z,97949.86
2019-02-14T09:01:12.049Z,97956.75
2019-02-14T09:03:54.542Z,97964.20
2019-02-14T09:06:44.291Z,97960.88
2019-02-14T09:09:26.500Z,97959.75
2019-02-14T09:12:10.059Z,97958.82
2019-02-14T09:14:52.047Z,97934.64
2019-02-14T09:17:41.837Z,97951.27
2019-02-14T09:20:31.597Z,97955.23
2019-02-14T09:23:21.380Z,97953.48
2019-02-14T09:26:11.212Z,97955.60
2019-02-14T09:31:54.857Z,97961.88
2019-02-14T09:34:44.771Z,97957.73
2019-02-14T09:37:34.551Z,97956.66
2019-02-14T09:40:24.346Z,97963.77
2019-02-14T09:43:14.054Z,97962.12
2019-02-14T09:46:04.201Z,97930.66
2019-02-14T09:48:53.960Z,97950.52
2019-02-14T09:51:36.376Z,97943.92
2019-02-14T09:54:26.386Z,97950.27
2019-02-14T09:57:08.408Z,97946.59
2019-02-14T09:59:58.135Z,97949.20
2019-02-14T10:02:40.316Z,97927.66
2019-02-14T10:05:30.072Z,97955.30
2019-02-14T10:08:13.195Z,97960.38
2019-02-14T10:11:03.052Z,97965.64
2019-02-14T10:13:45.294Z,97963.17
2019-02-14T10:16:35.091Z,97957.74
2019-02-14T10:19:24.906Z,97955.99
2019-02-14T10:22:14.750Z,97960.89
2019-02-14T10:25:04.560Z,97947.42
2019-02-14T10:27:54.275Z,97955.75
2019-02-14T10:30:25.004Z,97959.27
2019-02-14T10:33:14.760Z,97958.20
2019-02-14T10:36:04.648Z,97934.84
2019-02-14T10:38:46.774Z,97956.17
2019-02-14T10:41:36.494Z,97950.40
2019-02-14T10:44:22.784Z,97949.92
2019-02-14T10:47:12.540Z,97948.83
2019-02-14T10:49:56.718Z,97941.96
2019-02-14T10:52:46.750Z,97937.11
2019-02-14T10:55:29.436Z,97940.86
2019-02-14T10:58:19.526Z,97941.32
2019-02-14T11:01:02.046Z,97943.78
2019-02-14T11:03:51.800Z,97938.48
2019-02-14T11:06:33.973Z,97928.80
2019-02-14T11:09:23.693Z,97930.79
2019-02-14T11:12:06.215Z,97922.65
2019-02-14T11:14:55.971Z,97922.16
2019-02-14T11:17:38.757Z,97916.45
2019-02-14T11:20:28.558Z,97913.34
2019-02-14T11:23:11.593Z,97901.78
2019-02-14T11:26:01.352Z,97908.73
2019-02-14T11:28:51.170Z,97909.00
2019-02-14T11:31:40.988Z,97900.36
2019-02-14T11:34:30.820Z,97895.25
2019-02-14T11:37:20.623Z,97898.66
2019-02-14T11:40:11.319Z,97891.90
2019-02-14T11:42:53.405Z,97886.98
2019-02-14T11:45:43.228Z,97880.61
2019-02-14T11:48:33.093Z,97874.30
2019-02-14T11:51:22.915Z,97874.83
2019-02-14T11:54:12.749Z,97871.88
2019-02-14T11:57:02.536Z,97851.70
2019-02-14T11:59:52.301Z,97858.30
2019-02-14T12:02:42.045Z,97859.27
2019-02-14T12:05:31.857Z,97854.20
2019-02-14T12:08:21.673Z,97848.58
2019-02-14T12:11:11.414Z,97847.95
2019-02-14T12:14:01.144Z,97844.58
2019-02-14T12:16:50.861Z,97844.59
2019-02-14T12:19:32.928Z,97821.33
2019-02-14T12:22:22.669Z,97842.95
2019-02-14T12:25:06.135Z,97832.27
2019-02-14T12:27:55.851Z,97830.31
2019-02-14T12:30:38.143Z,97825.66
2019-02-14T12:33:27.925Z,97824.36
2019-02-14T12:36:09.890Z,97823.11
2019-02-14T12:39:08.320Z,97819.59
2019-02-14T12:41:43.805Z,97806.70
2019-02-14T12:44:33.604Z,97778.55
2019-02-14T12:47:23.473Z,97804.94
2019-02-14T12:50:13.221Z,97795.77
2019-02-14T12:53:03.057Z,97788.84
2019-02-14T12:55:47.666Z,97787.16
2019-02-14T12:58:37.318Z,97757.20
2019-02-14T13:01:21.761Z,97775.14
2019-02-14T13:04:11.277Z,97745.40
2019-02-14T13:06:54.117Z,97782.96
2019-02-14T13:09:44.171Z,97773.45
2019-02-14T13:12:33.980Z,97770.48
2019-02-14T13:15:24.164Z,97762.54
2019-02-14T13:18:13.916Z,97754.39
2019-02-14T13:21:03.766Z,97753.47
2019-02-14T13:23:53.645Z,97756.86
2019-02-14T13:27:02.523Z,97757.80
2019-02-14T13:29:52.235Z,97763.77
2019-02-14T13:32:42.302Z,97760.81
2019-02-14T13:35:32.150Z,97758.33
2019-02-14T13:38:14.978Z,97743.95
2019-02-14T13:41:04.727Z,97750.84
2019-02-14T13:43:47.322Z,97747.55
2019-02-14T13:46:37.043Z,97752.86
2019-02-14T13:49:19.604Z,97746.84
2019-02-14T13:52:09.409Z,97727.09
2019-02-14T13:54:52.226Z,97737.80
2019-02-14T14:03:37.621Z,97719.45
2019-02-14T14:06:25.400Z,97715.34
2019-02-14T14:09:12.391Z,97719.44
2019-02-14T14:12:02.612Z,97699.94
2019-02-14T14:14:52.812Z,97719.08
2019-02-14T14:17:42.619Z,97708.10
2019-02-14T14:20:32.361Z,97714.46
2019-02-14T14:23:14.536Z,97713.89
2019-02-14T14:26:04.350Z,97709.70
2019-02-14T14:28:54.210Z,97704.25
2019-02-14T14:31:43.986Z,97681.91
2019-02-14T14:34:33.716Z,97708.86
2019-02-14T14:37:16.557Z,97707.04
2019-02-14T14:40:07.356Z,97706.02
2019-02-14T14:43:15.986Z,97704.87
2019-02-14T14:49:06.580Z,97705.11
2019-02-14T14:51:56.327Z,97711.70
2019-02-14T14:54:38.581Z,97709.30
2019-02-14T14:57:28.309Z,97674.70
2019-02-14T15:00:14.430Z,97706.36
2019-02-14T15:03:04.224Z,97709.06
2019-02-14T15:05:46.992Z,97694.02
2019-02-14T15:08:36.781Z,97698.33
2019-02-14T15:11:26.670Z,97693.89
2019-02-14T15:14:16.619Z,97678.95
2019-02-14T15:16:58.659Z,97682.88
2019-02-14T15:19:41.337Z,97690.48
2019-02-14T15:22:31.101Z,97685.70
2019-02-14T15:25:17.977Z,97681.74
2019-02-14T15:28:16.879Z,97680.16
2019-02-14T15:31:06.825Z,97683.36
2019-02-14T15:33:56.783Z,97657.74
2019-02-14T15:36:47.197Z,97678.84
2019-02-14T15:39:30.918Z,97672.59
2019-02-14T15:42:33.441Z,97645.05
2019-02-14T15:45:17.053Z,97669.43
2019-02-14T15:48:06.805Z,97673.53
2019-02-14T15:50:49.089Z,97662.66
2019-02-14T15:53:38.797Z,97661.20
2019-02-14T15:56:21.037Z,97662.44
2019-02-14T15:59:29.891Z,97659.81
2019-02-14T16:02:13.690Z,97649.86
2019-02-14T16:08:09.435Z,97647.13
2019-02-14T16:10:55.968Z,97644.41
2019-02-14T16:13:38.900Z,97639.30
2019-02-14T16:16:28.680Z,97640.11
2019-02-14T16:19:18.513Z,97641.57
2019-02-14T16:22:08.237Z,97614.26
2019-02-14T16:24:57.951Z,97637.48
2019-02-14T16:27:48.206Z,97610.51
2019-02-14T16:30:33.324Z,97638.28
2019-02-14T16:33:23.624Z,97633.31
2019-02-14T16:36:08.589Z,97632.25
2019-02-14T16:38:59.311Z,97634.70
2019-02-14T16:41:42.441Z,97632.41
2019-02-14T16:44:32.563Z,97642.45
2019-02-14T16:47:14.861Z,97644.52
2019-02-14T16:50:04.939Z,97612.67
2019-02-14T16:52:47.596Z,97636.92
2019-02-14T16:55:37.359Z,97633.73
2019-02-14T16:58:20.669Z,97646.47
2019-02-14T17:01:10.427Z,97631.35
2019-02-14T17:03:52.745Z,97647.22
2019-02-14T17:06:42.593Z,97628.45
2019-02-14T17:09:44.137Z,97658.25
2019-02-14T17:12:22.301Z,97652.82
2019-02-14T17:15:05.034Z,97642.88
2019-02-14T17:17:55.083Z,97654.64
2019-02-14T17:20:42.068Z,97636.41
2019-02-14T17:23:31.804Z,97671.92
2019-02-14T17:26:13.894Z,97673.94
2019-02-14T17:29:03.824Z,97678.46
2019-02-14T17:31:45.998Z,97683.86
2019-02-14T17:34:35.770Z,97685.77
2019-02-14T17:37:17.756Z,97684.11
2019-02-14T17:40:07.954Z,97680.56
2019-02-14T17:42:52.485Z,97682.01
2019-02-14T17:45:41.926Z,97681.73
2019-02-14T17:48:24.428Z,97675.91
2019-02-14T17:51:14.169Z,97679.45
2019-02-14T17:53:56.430Z,97685.62
2019-02-14T17:56:46.172Z,97688.38
2019-02-14T17:59:28.455Z,97686.01
2019-02-14T18:05:21.274Z,97694.10
2019-02-14T18:08:11.032Z,97690.64
2019-02-14T18:10:55.000Z,97684.72
2019-02-14T18:16:41.036Z,97688.88
2019-02-14T18:19:23.544Z,97679.00
2019-02-14T18:22:13.395Z,97676.28
2019-02-14T18:25:03.609Z,97677.83
2019-02-14T18:27:53.406Z,97676.31
2019-02-14T18:30:43.217Z,97657.79
2019-02-14T18:33:33.053Z,97672.77
2019-02-14T18:36:22.765Z,97676.27
2019-02-14T18:39:09.650Z,97676.49
2019-02-14T18:41:52.119Z,97677.70
2019-02-14T18:44:41.936Z,97679.17
2019-02-14T18:47:39.473Z,97681.86
2019-02-14T18:50:15.957Z,97679.31
2019-02-14T18:53:05.747Z,97678.29
2019-02-14T18:55:48.449Z,97659.77
2019-02-14T18:58:51.213Z,97660.13
2019-02-14T19:01:33.916Z,97690.02
2019-02-14T19:04:23.613Z,97685.02
2019-02-14T19:07:05.701Z,97678.72
2019-02-14T19:09:55.416Z,97683.51
2019-02-14T19:12:39.331Z,97679.78
2019-02-14T19:15:29.467Z,97677.41
2019-02-14T19:18:11.511Z,97681.78
2019-02-14T19:21:01.276Z,97691.37
2019-02-14T19:23:43.298Z,97683.77
2019-02-14T19:26:33.024Z,97689.42
2019-02-14T19:29:16.939Z,97687.94
2019-02-14T19:32:06.719Z,97683.42
2019-02-14T19:34:49.384Z,97677.68
2019-02-14T19:37:39.210Z,97690.86
2019-02-14T19:40:21.247Z,97691.87
2019-02-14T19:43:10.999Z,97696.66
2019-02-14T19:45:53.071Z,97686.00
2019-02-14T19:48:42.793Z,97681.12
2019-02-14T19:51:25.242Z,97689.83
2019-02-14T19:54:14.969Z,97694.62
2019-02-14T19:56:57.012Z,97695.27
2019-02-14T19:59:46.729Z,97667.64
2019-02-14T20:02:29.003Z,97683.25
2019-02-14T20:05:18.865Z,97691.19
2019-02-14T20:08:01.140Z,97692.53
2019-02-14T20:11:09.673Z,97693.20
2019-02-14T20:13:51.789Z,97694.05
2019-02-14T20:16:41.602Z,97693.76
2019-02-14T20:19:31.517Z,97696.58
2019-02-14T20:25:25.073Z,97696.14
2019-02-14T20:28:07.743Z,97693.50
2019-02-14T20:30:57.567Z,97690.38
2019-02-14T20:33:47.671Z,97685.91
2019-02-14T20:36:30.321Z,97666.48
2019-02-14T20:39:20.069Z,97687.06
2019-02-14T20:42:02.618Z,97690.70
2019-02-14T20:44:52.427Z,97685.64
2019-02-14T20:47:42.317Z,97691.37
2019-02-14T20:50:32.120Z,97687.85
2019-02-14T20:53:21.945Z,97685.29
2019-02-14T20:56:11.750Z,97683.63
2019-02-14T20:59:01.610Z,97674.22
2019-02-14T21:01:51.591Z,97685.38
2019-02-14T21:04:41.413Z,97683.16
2019-02-14T21:07:31.154Z,97655.67
2019-02-14T21:10:14.247Z,97676.80
2019-02-14T21:13:04.273Z,97666.22
2019-02-14T21:15:54.206Z,97660.86
2019-02-14T21:18:44.038Z,97662.44
2019-02-14T21:21:33.878Z,97629.28
2019-02-14T21:24:23.621Z,97635.86
2019-02-14T21:27:06.295Z,97663.13
2019-02-14T21:29:49.179Z,97665.64
2019-02-14T21:32:38.965Z,97657.16
2019-02-14T21:35:28.812Z,97654.46
2019-02-14T21:38:18.598Z,97649.13
2019-02-14T21:41:08.444Z,97644.17
2019-02-14T21:43:58.274Z,97640.71
2019-02-14T21:46:48.198Z,97632.39
2019-02-14T21:49:38.071Z,97615.37
2019-02-14T21:52:27.900Z,97629.84
2019-02-14T21:55:17.774Z,97627.00
2019-02-14T21:58:07.616Z,97607.69
2019-02-14T22:00:57.424Z,97628.42
2019-02-14T22:03:47.512Z,97635.64
2019-02-14T22:06:37.300Z,97634.56
2019-02-14T22:09:27.082Z,97630.47
2019-02-14T22:12:16.930Z,97635.69
2019-02-14T22:18:12.491Z,97629.59
2019-02-14T22:20:54.608Z,97602.67
2019-02-14T22:23:44.405Z,97613.88
2019-02-14T22:26:34.438Z,97590.61
2019-02-14T22:34:56.376Z,97611.55
2019-02-14T22:37:46.090Z,97622.42
2019-02-14T22:40:28.882Z,97621.44
2019-02-14T22:43:18.633Z,97630.36
2019-02-14T22:46:01.276Z,97632.61
2019-02-14T22:48:51.002Z,97619.97
2019-02-14T22:51:33.061Z,97633.97
2019-02-14T22:54:22.859Z,97626.91
2019-02-14T22:57:05.512Z,97638.70
2019-02-14T23:02:56.616Z,97639.48
2019-02-14T23:05:46.497Z,97639.57
2019-02-14T23:08:29.136Z,97645.90
2019-02-14T23:11:18.856Z,97650.91
2019-02-14T23:14:02.515Z,97659.02
2019-02-14T23:16:52.386Z,97625.83
2019-02-14T23:19:34.609Z,97649.36
2019-02-14T23:22:24.348Z,97618.25
2019-02-14T23:25:06.599Z,97654.02
2019-02-14T23:27:56.560Z,97652.84
2019-02-14T23:30:38.671Z,97657.97
2019-02-14T23:33:29.007Z,97657.95
2019-02-14T23:36:13.360Z,97653.30
2019-02-14T23:42:06.409Z,97641.20
2019-02-14T23:44:56.123Z,97653.82
2019-02-14T23:47:38.837Z,97652.59
2019-02-14T23:50:28.567Z,97643.50
2019-02-14T23:53:11.069Z,97653.50
2019-02-14T23:56:00.829Z,97650.11
2019-02-14T23:58:50.551Z,97642.70
